createdAt,value
2022-08-16T00:00:46.355Z,15.23
2022-08-16T00:03:14.902Z,15.83
2022-08-16T00:05:48.619Z,14.90
2022-08-16T00:08:30.642Z,15.03
2022-08-16T00:11:06.751Z,14.83
2022-08-16T00:13:41.741Z,15.30
2022-08-16T00:17:06.248Z,15.10
2022-08-16T00:18:59.465Z,15.47
2022-08-16T00:21:29.169Z,14.63
2022-08-16T00:23:56.358Z,16.00
2022-08-16T00:26:36.074Z,15.60
2022-08-16T00:29:16.140Z,14.80
2022-08-16T00:31:59.513Z,14.53
2022-08-16T00:34:43.110Z,15.50
2022-08-16T00:37:17.381Z,15.67
2022-08-16T00:39:47.774Z,15.80
2022-08-16T00:42:30.308Z,14.27
2022-08-16T00:45:08.762Z,14.93
2022-08-16T00:47:49.492Z,14.90
2022-08-16T00:50:20.459Z,15.57
2022-08-16T00:52:51.078Z,15.33
2022-08-16T00:55:22.055Z,15.50
2022-08-16T00:58:00.176Z,14.70
2022-08-16T01:00:30.298Z,15.03
2022-08-16T01:03:01.148Z,15.70
2022-08-16T01:05:29.259Z,15.30
2022-08-16T01:07:57.472Z,16.27
2022-08-16T01:10:31.353Z,14.60
2022-08-16T01:13:06.370Z,14.77
2022-08-16T01:15:36.224Z,15.07
2022-08-16T01:18:06.514Z,14.13
2022-08-16T01:20:43.668Z,14.60
2022-08-16T01:23:57.908Z,14.50
2022-08-16T01:26:35.466Z,14.90
2022-08-16T01:29:16.234Z,14.30
2022-08-16T01:31:44.581Z,14.50
2022-08-16T01:34:22.756Z,14.70
2022-08-16T01:37:07.161Z,14.57
2022-08-16T01:39:36.671Z,14.67
2022-08-16T01:42:12.930Z,15.10
2022-08-16T01:44:41.257Z,14.43
2022-08-16T01:47:09.573Z,13.47
2022-08-16T01:49:45.403Z,14.73
2022-08-16T01:52:30.533Z,14.90
2022-08-16T01:54:58.211Z,14.10
2022-08-16T01:57:31.826Z,14.17
2022-08-16T02:00:05.271Z,16.87
2022-08-16T02:02:42.485Z,14.43
2022-08-16T02:05:10.292Z,14.13
2022-08-16T02:07:39.243Z,14.37
2022-08-16T02:10:11.512Z,13.17
2022-08-16T02:12:49.955Z,14.00
2022-08-16T02:15:25.057Z,13.87
2022-08-16T02:17:54.462Z,13.83
2022-08-16T02:20:26.076Z,14.07
2022-08-16T02:22:55.196Z,14.00
2022-08-16T02:25:22.556Z,13.83
2022-08-16T02:27:51.691Z,14.03
2022-08-16T02:30:37.058Z,14.40
2022-08-16T02:33:10.967Z,14.10
2022-08-16T02:35:49.644Z,18.37
2022-08-16T02:38:21.562Z,14.00
2022-08-16T02:40:48.903Z,14.37
2022-08-16T02:43:16.269Z,14.63
2022-08-16T02:45:43.486Z,14.57
2022-08-16T02:48:29.460Z,14.07
2022-08-16T02:51:06.573Z,14.50
2022-08-16T02:53:44.853Z,14.77
2022-08-16T02:56:14.911Z,14.03
2022-08-16T02:58:43.984Z,14.63
2022-08-16T03:01:24.059Z,14.30
2022-08-16T03:04:41.328Z,14.03
2022-08-16T03:06:43.375Z,14.13
2022-08-16T03:09:14.788Z,14.20
2022-08-16T03:11:43.549Z,14.27
2022-08-16T03:14:11.709Z,14.20
2022-08-16T03:16:42.240Z,13.87
2022-08-16T03:19:27.127Z,14.47
2022-08-16T03:22:19.442Z,16.27
2022-08-16T03:25:01.657Z,19.27
2022-08-16T03:27:31.327Z,17.53
2022-08-16T03:30:16.140Z,19.53
2022-08-16T03:32:47.436Z,20.50
2022-08-16T03:35:15.385Z,20.20
2022-08-16T03:38:01.550Z,19.20
2022-08-16T03:40:33.882Z,17.77
2022-08-16T03:43:20.879Z,17.33
2022-08-16T03:45:52.788Z,17.90
2022-08-16T03:48:36.245Z,16.97
2022-08-16T03:51:08.644Z,16.30
2022-08-16T03:53:38.344Z,16.47
2022-08-16T03:56:07.697Z,14.80
2022-08-16T03:58:46.568Z,14.83
2022-08-16T04:01:15.676Z,14.30
2022-08-16T04:03:44.287Z,14.77
2022-08-16T04:06:11.208Z,14.57
2022-08-16T04:08:39.534Z,14.30
2022-08-16T04:11:06.887Z,14.27
2022-08-16T04:14:01.492Z,14.73
2022-08-16T04:16:27.082Z,14.33
2022-08-16T04:19:02.040Z,13.70
2022-08-16T04:21:32.071Z,14.30
2022-08-16T04:23:59.880Z,13.50
2022-08-16T04:26:31.145Z,13.43
2022-08-16T04:29:21.126Z,13.77
2022-08-16T04:31:56.440Z,14.23
2022-08-16T04:34:27.801Z,13.97
2022-08-16T04:36:56.785Z,13.97
2022-08-16T04:39:24.561Z,14.00
2022-08-16T04:42:11.334Z,14.37
2022-08-16T04:44:54.421Z,14.67
2022-08-16T04:47:33.202Z,14.10
2022-08-16T04:50:32.221Z,13.30
2022-08-16T04:52:59.750Z,13.93
2022-08-16T04:55:31.759Z,13.60
2022-08-16T04:58:44.082Z,15.63
2022-08-16T05:00:53.147Z,13.70
2022-08-16T05:03:20.709Z,14.37
2022-08-16T05:05:59.184Z,13.80
2022-08-16T05:08:31.068Z,13.80
2022-08-16T05:11:05.582Z,13.40
2022-08-16T05:13:40.614Z,14.67
2022-08-16T05:16:21.458Z,14.30
2022-08-16T05:18:53.832Z,14.10
2022-08-16T05:21:24.680Z,13.33
2022-08-16T05:23:55.736Z,14.07
2022-08-16T05:26:28.299Z,13.40
2022-08-16T05:28:59.556Z,13.23
2022-08-16T05:31:30.552Z,18.47
2022-08-16T05:34:03.603Z,14.37
2022-08-16T05:36:36.854Z,13.93
2022-08-16T05:39:08.764Z,14.53
2022-08-16T05:41:45.212Z,14.10
2022-08-16T05:44:23.236Z,12.80
2022-08-16T05:46:56.841Z,12.73
2022-08-16T05:49:25.405Z,13.63
2022-08-16T05:52:05.766Z,14.93
2022-08-16T05:54:46.048Z,12.70
2022-08-16T05:57:15.745Z,13.40
2022-08-16T05:59:42.591Z,13.17
2022-08-16T06:02:10.198Z,13.10
2022-08-16T06:04:37.786Z,13.43
2022-08-16T06:07:24.274Z,13.17
2022-08-16T06:09:56.239Z,13.73
2022-08-16T06:12:27.940Z,13.57
2022-08-16T06:15:04.368Z,13.47
2022-08-16T06:17:42.856Z,13.37
2022-08-16T06:20:36.029Z,13.77
2022-08-16T06:23:17.125Z,13.83
2022-08-16T06:25:53.032Z,12.77
2022-08-16T06:28:35.016Z,13.83
2022-08-16T06:31:03.040Z,12.67
2022-08-16T06:33:41.163Z,13.47
2022-08-16T06:36:09.883Z,13.87
2022-08-16T06:38:38.686Z,12.50
2022-08-16T06:41:22.391Z,15.20
2022-08-16T06:43:51.476Z,14.50
2022-08-16T06:46:32.084Z,14.53
2022-08-16T06:49:00.692Z,14.87
2022-08-16T06:51:46.014Z,12.93
2022-08-16T06:54:15.498Z,12.97
2022-08-16T06:56:42.973Z,13.77
2022-08-16T06:59:10.734Z,13.40
2022-08-16T07:01:44.381Z,13.05
2022-08-16T07:04:13.430Z,13.30
2022-08-16T07:07:00.745Z,13.17
2022-08-16T07:09:29.883Z,12.68
2022-08-16T07:12:03.888Z,12.93
2022-08-16T07:14:33.672Z,12.88
2022-08-16T07:17:02.337Z,12.55
2022-08-16T07:20:03.183Z,12.50
2022-08-16T07:22:52.910Z,12.48
2022-08-16T07:25:13.256Z,12.25
2022-08-16T07:27:41.855Z,13.38
2022-08-16T07:30:26.753Z,13.35
2022-08-16T07:33:00.979Z,14.07
2022-08-16T07:35:28.010Z,12.73
2022-08-16T07:37:54.858Z,13.60
2022-08-16T07:40:37.009Z,12.55
2022-08-16T07:43:09.213Z,12.90
2022-08-16T07:45:36.828Z,13.43
2022-08-16T07:48:11.821Z,12.80
2022-08-16T07:50:56.246Z,13.50
2022-08-16T07:53:25.174Z,13.23
2022-08-16T07:55:56.841Z,12.90
2022-08-16T07:58:33.649Z,13.18
2022-08-16T08:01:10.478Z,12.77
2022-08-16T08:03:47.601Z,12.85
2022-08-16T08:06:25.034Z,14.48
2022-08-16T08:09:05.969Z,14.32
2022-08-16T08:11:40.349Z,13.15
2022-08-16T08:14:35.787Z,11.80
2022-08-16T08:17:05.292Z,11.35
2022-08-16T08:19:35.757Z,11.43
2022-08-16T08:22:05.904Z,12.60
2022-08-16T08:24:34.736Z,10.70
2022-08-16T08:27:04.606Z,12.32
2022-08-16T08:29:37.712Z,10.90
2022-08-16T08:32:50.471Z,11.65
2022-08-16T08:35:02.966Z,10.98
2022-08-16T08:37:54.157Z,11.10
2022-08-16T08:40:19.086Z,11.32
2022-08-16T08:42:57.742Z,10.80
2022-08-16T08:45:47.881Z,12.75
2022-08-16T08:48:33.648Z,11.57
2022-08-16T08:51:02.863Z,11.57
2022-08-16T08:53:30.670Z,11.23
2022-08-16T08:55:59.029Z,11.82
2022-08-16T08:58:34.042Z,11.68
2022-08-16T09:01:03.113Z,11.27
2022-08-16T09:03:39.389Z,11.10
2022-08-16T09:06:08.322Z,11.98
2022-08-16T09:08:36.631Z,11.63
2022-08-16T09:11:04.068Z,12.07
2022-08-16T09:13:34.371Z,11.60
2022-08-16T09:16:02.057Z,11.68
2022-08-16T09:18:35.750Z,12.60
2022-08-16T09:21:07.178Z,12.07
2022-08-16T09:23:37.943Z,11.85
2022-08-16T09:26:46.036Z,11.80
2022-08-16T09:29:14.474Z,12.60
2022-08-16T09:31:43.342Z,11.90
2022-08-16T09:34:17.195Z,11.98
2022-08-16T09:36:46.550Z,11.45
2022-08-16T09:39:17.155Z,11.75
2022-08-16T09:41:54.819Z,11.52
2022-08-16T09:45:11.604Z,13.25
2022-08-16T09:47:13.560Z,10.98
2022-08-16T09:49:41.249Z,10.52
2022-08-16T09:52:09.375Z,10.43
2022-08-16T09:54:37.877Z,10.65
2022-08-16T09:57:04.987Z,10.90
2022-08-16T09:59:38.574Z,10.55
2022-08-16T10:02:26.471Z,10.60
2022-08-16T10:04:58.215Z,10.52
2022-08-16T10:07:44.682Z,10.75
2022-08-16T10:10:19.013Z,11.35
2022-08-16T10:13:12.445Z,10.27
2022-08-16T10:15:43.825Z,10.88
2022-08-16T10:18:54.152Z,11.20
2022-08-16T10:21:09.655Z,11.25
2022-08-16T10:23:36.694Z,12.00
2022-08-16T10:27:16.895Z,12.27
2022-08-16T10:28:52.891Z,11.80
2022-08-16T10:31:44.171Z,12.18
2022-08-16T10:34:31.636Z,10.93
2022-08-16T10:36:54.774Z,11.65
2022-08-16T10:39:22.380Z,11.25
2022-08-16T10:41:51.244Z,11.98
2022-08-16T10:44:18.229Z,11.35
2022-08-16T10:46:45.483Z,10.95
2022-08-16T10:49:16.857Z,10.80
2022-08-16T10:52:02.467Z,10.73
2022-08-16T10:54:31.087Z,9.48
2022-08-16T10:57:04.342Z,9.32
2022-08-16T10:59:45.985Z,9.32
2022-08-16T11:03:37.517Z,9.35
2022-08-16T11:05:11.711Z,8.80
2022-08-16T11:07:52.045Z,9.15
2022-08-16T11:13:58.268Z,9.88
2022-08-16T11:16:26.378Z,9.98
2022-08-16T11:19:05.906Z,10.93
2022-08-16T11:22:11.197Z,10.82
2022-08-16T11:24:41.596Z,10.82
2022-08-16T11:27:20.484Z,11.00
2022-08-16T11:29:55.084Z,10.95
2022-08-16T11:32:30.050Z,10.27
2022-08-16T11:35:13.458Z,10.77
2022-08-16T11:40:44.638Z,10.48
2022-08-16T11:43:16.927Z,11.13
2022-08-16T11:45:53.668Z,10.45
2022-08-16T11:48:23.493Z,10.82
2022-08-16T11:50:50.384Z,10.32
2022-08-16T11:53:18.785Z,10.57
2022-08-16T11:55:45.658Z,10.65
2022-08-16T11:58:18.127Z,10.60
2022-08-16T12:01:11.980Z,10.45
2022-08-16T12:03:43.618Z,9.85
2022-08-16T12:06:25.332Z,11.13
2022-08-16T12:09:41.242Z,11.75
2022-08-16T12:17:22.413Z,11.48
2022-08-16T12:23:52.848Z,11.23
2022-08-16T12:26:32.066Z,10.77
2022-08-16T12:33:25.517Z,11.70
2022-08-16T12:36:06.154Z,11.27
2022-08-16T12:42:37.657Z,12.20
2022-08-16T12:55:41.909Z,11.85
2022-08-16T12:59:11.494Z,11.85
2022-08-16T13:26:08.745Z,6.68
2022-08-16T13:29:40.023Z,6.60
2022-08-16T13:32:44.276Z,5.95
2022-08-16T13:35:27.819Z,5.80
2022-08-16T14:26:08.885Z,6.80
2022-08-16T14:28:36.107Z,6.40
2022-08-16T14:31:04.609Z,7.20
2022-08-16T14:33:33.073Z,6.32
2022-08-16T14:36:01.916Z,6.13
2022-08-16T14:38:39.154Z,7.10
2022-08-16T14:41:28.084Z,5.88
2022-08-16T14:43:55.893Z,5.03
2022-08-16T14:46:23.332Z,5.45
2022-08-16T14:48:51.493Z,6.20
2022-08-16T14:51:22.720Z,6.45
2022-08-16T14:53:52.757Z,6.93
2022-08-16T14:56:42.521Z,7.07
2022-08-16T14:59:22.195Z,7.53
2022-08-16T15:02:01.214Z,6.85
2022-08-16T15:04:47.964Z,6.82
2022-08-16T15:07:24.001Z,7.72
2022-08-16T15:10:00.937Z,7.75
2022-08-16T15:12:41.826Z,8.00
2022-08-16T15:15:26.305Z,7.35
2022-08-16T15:18:47.924Z,7.57
2022-08-16T15:25:41.386Z,8.02
2022-08-16T15:39:07.777Z,8.80
2022-08-16T15:41:46.914Z,8.90
2022-08-16T15:44:50.888Z,8.88
2022-08-16T15:47:25.793Z,9.35
2022-08-16T15:49:55.781Z,9.70
2022-08-16T15:52:36.096Z,8.90
2022-08-16T15:55:23.849Z,9.02
2022-08-16T15:57:56.525Z,9.23
2022-08-16T16:00:26.643Z,9.40
2022-08-16T16:03:10.581Z,9.20
2022-08-16T16:05:40.423Z,10.65
2022-08-16T16:08:12.331Z,9.77
2022-08-16T16:10:43.290Z,10.48
2022-08-16T16:13:11.015Z,9.60
2022-08-16T16:15:44.778Z,9.48
2022-08-16T16:18:12.760Z,8.82
2022-08-16T16:20:47.442Z,9.85
2022-08-16T16:23:18.197Z,9.13
2022-08-16T16:25:45.972Z,8.48
2022-08-16T16:29:05.245Z,9.63
2022-08-16T16:31:05.481Z,9.75
2022-08-16T16:33:34.073Z,9.73
2022-08-16T16:36:03.981Z,10.25
2022-08-16T16:38:34.860Z,9.68
2022-08-16T16:41:08.922Z,9.57
2022-08-16T16:43:42.454Z,9.98
2022-08-16T16:46:41.304Z,9.10
2022-08-16T16:49:03.910Z,9.30
2022-08-16T16:51:31.354Z,9.90
2022-08-16T16:54:00.419Z,8.38
2022-08-16T16:56:32.351Z,9.05
2022-08-16T16:59:06.392Z,8.45
2022-08-16T17:01:59.761Z,8.57
2022-08-16T17:04:31.640Z,8.68
2022-08-16T17:07:00.074Z,8.57
2022-08-16T17:09:27.251Z,8.85
2022-08-16T17:11:55.156Z,8.40
2022-08-16T17:14:32.944Z,8.00
2022-08-16T17:17:04.257Z,8.77
2022-08-16T17:19:32.064Z,8.43
2022-08-16T17:22:00.331Z,8.52
2022-08-16T17:24:33.206Z,8.63
2022-08-16T17:27:07.714Z,8.45
2022-08-16T17:29:35.488Z,8.77
2022-08-16T17:32:46.661Z,8.30
2022-08-16T17:35:09.892Z,8.20
2022-08-16T17:39:28.084Z,8.18
2022-08-16T17:40:46.914Z,8.13
2022-08-16T17:43:22.336Z,8.35
2022-08-16T17:45:49.929Z,9.45
2022-08-16T17:48:17.730Z,9.40
2022-08-16T17:50:45.519Z,9.02
2022-08-16T17:53:13.979Z,9.77
2022-08-16T17:55:44.701Z,8.93
2022-08-16T17:58:22.990Z,9.45
2022-08-16T18:00:53.412Z,9.80
2022-08-16T18:04:02.963Z,9.23
2022-08-16T18:06:16.719Z,9.88
2022-08-16T18:08:44.313Z,10.52
2022-08-16T18:11:13.486Z,10.32
2022-08-16T18:13:43.295Z,9.68
2022-08-16T18:16:11.977Z,10.43
2022-08-16T18:18:38.872Z,10.13
2022-08-16T18:21:24.372Z,10.13
2022-08-16T18:23:51.314Z,10.35
2022-08-16T18:26:18.255Z,10.65
2022-08-16T18:28:45.094Z,10.13
2022-08-16T18:31:11.945Z,11.30
2022-08-16T18:33:43.646Z,11.18
2022-08-16T18:36:20.449Z,10.18
2022-08-16T18:38:49.342Z,10.15
2022-08-16T18:41:16.543Z,10.45
2022-08-16T18:44:00.996Z,10.57
2022-08-16T18:46:30.660Z,10.63
2022-08-16T18:48:57.526Z,10.40
2022-08-16T18:51:25.429Z,11.52
2022-08-16T18:53:53.044Z,10.73
2022-08-16T18:56:19.994Z,10.45
2022-08-16T18:58:46.882Z,11.23
2022-08-16T19:01:14.220Z,10.90
2022-08-16T19:03:41.368Z,12.00
2022-08-16T19:06:13.949Z,13.20
2022-08-16T19:08:43.723Z,13.43
2022-08-16T19:11:21.632Z,12.85
2022-08-16T19:13:48.859Z,10.75
2022-08-16T19:16:16.258Z,11.50
2022-08-16T19:18:43.857Z,11.30
2022-08-16T19:21:14.508Z,11.35
2022-08-16T19:23:43.648Z,13.10
2022-08-16T19:26:24.804Z,13.73
2022-08-16T19:28:58.293Z,11.63
2022-08-16T19:31:30.107Z,11.07
2022-08-16T19:33:58.166Z,10.90
2022-08-16T19:36:36.345Z,11.20
2022-08-16T19:39:13.800Z,11.70
2022-08-16T19:41:50.574Z,11.68
2022-08-16T19:44:22.415Z,11.90
2022-08-16T19:46:49.742Z,11.63
2022-08-16T19:49:17.082Z,11.37
2022-08-16T19:51:49.072Z,12.20
2022-08-16T19:54:17.519Z,13.32
2022-08-16T19:56:44.521Z,18.30
2022-08-16T19:59:20.970Z,16.95
2022-08-16T20:01:52.024Z,13.20
2022-08-16T20:04:20.785Z,12.15
2022-08-16T20:06:47.626Z,12.75
2022-08-16T20:09:15.193Z,13.13
2022-08-16T20:11:44.289Z,12.88
2022-08-16T20:14:11.608Z,12.68
2022-08-16T20:16:46.788Z,12.73
2022-08-16T20:19:13.849Z,12.57
2022-08-16T20:21:40.938Z,13.00
2022-08-16T20:24:32.535Z,12.80
2022-08-16T20:27:02.231Z,12.63
2022-08-16T20:29:29.409Z,13.70
2022-08-16T20:31:56.365Z,13.45
2022-08-16T20:34:23.515Z,13.35
2022-08-16T20:36:50.390Z,13.55
2022-08-16T20:39:38.909Z,13.97
2022-08-16T20:44:59.888Z,14.10
2022-08-16T20:47:27.415Z,13.30
2022-08-16T20:49:55.061Z,13.27
2022-08-16T20:52:24.540Z,13.43
2022-08-16T20:54:52.962Z,13.50
2022-08-16T20:57:20.022Z,13.40
2022-08-16T20:59:50.626Z,13.20
2022-08-16T21:02:24.508Z,14.07
2022-08-16T21:04:51.335Z,13.63
2022-08-16T21:07:31.484Z,13.83
2022-08-16T21:09:58.402Z,13.40
2022-08-16T21:12:25.347Z,13.63
2022-08-16T21:14:56.395Z,14.73
2022-08-16T21:17:23.291Z,14.07
2022-08-16T21:19:50.245Z,14.20
2022-08-16T21:22:19.988Z,13.07
2022-08-16T21:24:48.078Z,14.33
2022-08-16T21:27:20.118Z,13.97
2022-08-16T21:29:48.378Z,14.10
2022-08-16T21:32:34.871Z,15.33
2022-08-16T21:35:12.588Z,13.27
2022-08-16T21:37:40.400Z,14.43
2022-08-16T21:40:09.104Z,14.03
2022-08-16T21:42:37.486Z,14.70
2022-08-16T21:45:05.104Z,14.33
2022-08-16T21:47:32.255Z,13.87
2022-08-16T21:49:59.133Z,14.87
2022-08-16T21:52:27.049Z,13.97
2022-08-16T21:54:56.156Z,13.93
2022-08-16T21:57:24.597Z,14.63
2022-08-16T21:59:53.267Z,14.13
2022-08-16T22:02:23.435Z,13.50
2022-08-16T22:04:50.543Z,14.30
2022-08-16T22:07:18.272Z,14.27
2022-08-16T22:09:46.687Z,14.47
2022-08-16T22:12:24.163Z,13.57
2022-08-16T22:14:51.263Z,14.03
2022-08-16T22:17:20.513Z,14.63
2022-08-16T22:19:47.690Z,14.27
2022-08-16T22:22:14.878Z,15.37
2022-08-16T22:24:41.864Z,14.53
2022-08-16T22:27:08.746Z,15.47
2022-08-16T22:29:35.602Z,15.50
2022-08-16T22:32:07.840Z,14.80
2022-08-16T22:34:34.731Z,14.97
2022-08-16T22:37:02.025Z,14.53
2022-08-16T22:39:28.952Z,15.33
2022-08-16T22:41:56.389Z,15.03
2022-08-16T22:44:24.576Z,15.23
2022-08-16T22:46:51.561Z,15.37
2022-08-16T22:49:18.868Z,14.83
2022-08-16T22:51:45.752Z,15.20
2022-08-16T22:54:43.869Z,16.37
2022-08-16T22:56:59.529Z,16.23
2022-08-16T22:59:26.812Z,16.20
2022-08-16T23:01:53.838Z,15.33
2022-08-16T23:04:21.617Z,15.70
2022-08-16T23:06:49.157Z,15.80
2022-08-16T23:09:16.111Z,15.70
2022-08-16T23:11:43.022Z,15.83
2022-08-16T23:14:09.912Z,16.63
2022-08-16T23:16:36.779Z,15.97
2022-08-16T23:19:09.553Z,17.17
2022-08-16T23:21:38.322Z,16.97
2022-08-16T23:24:06.775Z,16.77
2022-08-16T23:26:46.988Z,16.60
2022-08-16T23:29:25.450Z,16.23
2022-08-16T23:32:10.853Z,16.80
2022-08-16T23:34:37.889Z,16.50
2022-08-16T23:37:05.417Z,16.73
2022-08-16T23:39:32.401Z,18.67
2022-08-16T23:41:59.738Z,17.07
2022-08-16T23:44:56.477Z,17.87
2022-08-16T23:47:13.641Z,16.47
2022-08-16T23:49:56.240Z,16.43
2022-08-16T23:52:48.856Z,16.70
2022-08-16T23:55:16.293Z,16.53
2022-08-16T23:57:44.685Z,16.77
